Time;durP1;ratioP1;P1;durP2;ratioP2;P2;SDS_P1;SDS_P2;PMS_P1;PMS_P2;Temp;Humidity;BMP_temperature;BMP_pressure;BME280_temperature;BME280_humidity;BME280_pressure;Samples;Min_cycle;Max_cycle;Signal;HPM_P1;HPM_P2
2022/01/03 00:02:55;;;;;;;7.93;7.18;;;21.60;76.90;;;;;;6306695;27;88399;-71
2022/01/03 00:05:57;;;;;;;8.25;7.50;;;21.60;76.90;;;;;;6284649;27;89085;-71
2022/01/03 00:08:59;;;;;;;8.02;7.18;;;21.60;77.00;;;;;;6295498;27;89053;-71
2022/01/03 00:12:02;;;;;;;8.10;7.30;;;21.50;76.90;;;;;;6288776;27;89946;-71
2022/01/03 00:15:05;;;;;;;8.00;7.20;;;21.50;77.00;;;;;;6296737;27;89044;-71
2022/01/03 00:18:09;;;;;;;8.27;7.47;;;21.50;77.00;;;;;;6297356;27;89163;-71
2022/01/03 00:21:13;;;;;;;8.57;7.78;;;21.50;77.00;;;;;;6282611;27;88933;-71
2022/01/03 00:24:23;;;;;;;8.40;7.60;;;21.50;77.00;;;;;;6302029;27;87972;-72
2022/01/03 00:27:33;;;;;;;7.97;7.18;;;21.60;77.10;;;;;;6304701;27;89060;-71
2022/01/03 00:30:37;;;;;;;8.35;7.55;;;21.50;76.90;;;;;;6295133;27;89008;-71
2022/01/03 00:33:42;;;;;;;8.48;7.68;;;21.50;76.90;;;;;;6310568;27;88389;-71
2022/01/03 00:36:46;;;;;;;8.57;7.78;;;21.50;77.00;;;;;;6307840;27;89082;-72
2022/01/03 00:39:49;;;;;;;8.02;7.22;;;21.50;77.10;;;;;;6286138;27;89102;-72
2022/01/03 00:42:51;;;;;;;8.38;7.57;;;21.50;77.00;;;;;;6289021;27;89980;-72
2022/01/03 00:45:53;;;;;;;8.27;7.40;;;21.50;77.00;;;;;;6307031;27;89096;-71
2022/01/03 00:48:59;;;;;;;8.25;7.45;;;21.50;77.00;;;;;;6295670;27;88387;-71
2022/01/03 00:52:01;;;;;;;8.43;7.63;;;21.50;77.00;;;;;;6289434;27;88249;-72
2022/01/03 00:55:04;;;;;;;7.97;7.18;;;21.50;77.00;;;;;;6309458;27;87919;-71
2022/01/03 00:58:10;;;;;;;8.23;7.43;;;21.50;77.10;;;;;;6294543;27;89029;-71
2022/01/03 01:01:12;;;;;;;8.30;7.50;;;21.50;77.10;;;;;;6308047;27;89004;-71
2022/01/03 01:04:18;;;;;;;8.20;7.40;;;21.40;77.00;;;;;;6295493;27;88330;-71
2022/01/03 01:07:21;;;;;;;8.50;7.60;;;21.50;77.10;;;;;;6283431;27;89176;-71
2022/01/03 01:10:26;;;;;;;7.97;7.18;;;21.50;77.10;;;;;;6282754;27;88015;-71
2022/01/03 01:13:28;;;;;;;7.78;7.05;;;21.40;77.10;;;;;;6282335;27;90081;-72
2022/01/03 01:16:30;;;;;;;8.18;7.38;;;21.40;77.10;;;;;;6283840;27;87959;-71
2022/01/03 01:19:36;;;;;;;8.00;7.30;;;21.40;77.10;;;;;;6295902;27;89432;-72
2022/01/03 01:22:39;;;;;;;8.48;7.68;;;21.50;77.10;;;;;;6292416;27;89195;-71
2022/01/03 01:29:20;;;;;;;7.38;6.68;;;21.50;77.10;;;;;;6291030;27;88705;-72
2022/01/03 01:32:24;;;;;;;8.20;7.40;;;21.50;77.10;;;;;;6292318;27;87956;-72
2022/01/03 01:35:35;;;;;;;7.65;6.95;;;21.50;77.10;;;;;;6292442;27;88338;-72
2022/01/03 01:38:39;;;;;;;7.15;6.45;;;21.40;77.00;;;;;;6291075;27;89308;-72
2022/01/03 01:41:44;;;;;;;7.75;6.95;;;21.40;77.00;;;;;;6293348;27;89068;-72
2022/01/03 01:44:49;;;;;;;7.32;6.63;;;21.40;77.10;;;;;;6285479;27;88911;-72
2022/01/03 01:47:58;;;;;;;7.43;6.72;;;21.40;77.10;;;;;;6288646;27;89039;-71
2022/01/03 01:51:02;;;;;;;7.75;6.97;;;21.40;77.10;;;;;;6283625;27;88061;-71
2022/01/03 01:54:06;;;;;;;6.78;6.18;;;21.40;77.10;;;;;;6292873;27;89211;-71
2022/01/03 01:57:18;;;;;;;7.38;6.63;;;21.40;77.10;;;;;;6297093;27;88976;-71
2022/01/03 02:00:20;;;;;;;7.18;6.50;;;21.40;77.10;;;;;;6289889;27;89037;-72
2022/01/03 02:03:39;;;;;;;6.72;6.13;;;21.40;77.10;;;;;;6286508;27;89418;-72
2022/01/03 02:06:45;;;;;;;7.18;6.47;;;21.30;77.00;;;;;;6295085;27;89981;-72
2022/01/03 02:10:00;;;;;;;7.03;6.32;;;21.40;77.10;;;;;;6287354;27;87897;-72
2022/01/03 02:13:03;;;;;;;6.45;5.85;;;21.30;77.00;;;;;;6288922;27;88207;-72
2022/01/03 02:16:05;;;;;;;6.32;5.72;;;21.40;77.10;;;;;;6285837;27;89968;-71
2022/01/03 02:19:07;;;;;;;6.38;5.78;;;21.40;77.10;;;;;;6287894;27;89144;-72
2022/01/03 02:22:13;;;;;;;6.70;6.10;;;21.40;77.00;;;;;;6290922;27;87889;-71
2022/01/03 02:25:17;;;;;;;6.50;5.90;;;21.40;76.90;;;;;;6291958;27;89074;-72
2022/01/03 02:28:22;;;;;;;5.95;5.43;;;21.40;76.90;;;;;;6293944;27;89097;-71
2022/01/03 02:31:25;;;;;;;5.47;4.97;;;21.40;76.80;;;;;;6283504;27;89118;-72
2022/01/03 02:34:29;;;;;;;5.90;5.30;;;21.40;76.80;;;;;;6299930;27;87961;-71
2022/01/03 02:37:33;;;;;;;6.10;5.50;;;21.30;76.80;;;;;;6295908;27;88419;-71
2022/01/03 02:40:36;;;;;;;6.10;5.30;;;21.30;76.80;;;;;;6293673;27;89161;-71
2022/01/03 02:43:38;;;;;;;5.85;5.30;;;21.30;76.80;;;;;;6282278;27;89067;-71
2022/01/03 02:46:41;;;;;;;5.60;5.10;;;21.30;76.80;;;;;;6289739;27;90189;-72
2022/01/03 02:49:43;;;;;;;5.65;5.15;;;21.30;77.70;;;;;;6299851;27;88958;-71
2022/01/03 02:52:47;;;;;;;5.43;4.93;;;21.30;77.00;;;;;;6291802;27;89170;-71
2022/01/03 02:55:50;;;;;;;5.65;5.15;;;21.30;76.90;;;;;;6280701;27;88061;-71
2022/01/03 02:58:52;;;;;;;4.93;4.43;;;21.30;76.90;;;;;;6300614;27;89188;-72
2022/01/03 03:01:54;;;;;;;5.68;5.07;;;21.30;76.90;;;;;;6302896;27;89369;-71
2022/01/03 03:04:57;;;;;;;5.43;4.93;;;21.30;77.00;;;;;;6296387;27;88560;-71
2022/01/03 03:08:01;;;;;;;5.53;4.93;;;21.30;76.90;;;;;;6295388;27;88268;-71
2022/01/03 03:11:03;;;;;;;5.28;4.78;;;21.30;76.90;;;;;;6282485;27;88254;-71
2022/01/03 03:14:06;;;;;;;5.07;4.57;;;21.30;76.90;;;;;;6285029;27;89404;-71
2022/01/03 03:17:08;;;;;;;5.20;4.70;;;21.30;76.80;;;;;;6305890;27;90203;-71
2022/01/03 03:20:12;;;;;;;5.47;4.78;;;21.30;76.80;;;;;;6300091;27;89198;-72
2022/01/03 03:23:16;;;;;;;5.25;4.75;;;21.30;77.60;;;;;;6305535;27;87953;-69
2022/01/03 03:26:18;;;;;;;5.68;5.10;;;21.30;76.60;;;;;;6302848;27;89027;-71
2022/01/03 03:29:20;;;;;;;5.47;4.97;;;21.30;76.60;;;;;;6299840;27;89082;-70
2022/01/03 03:32:22;;;;;;;5.35;4.85;;;21.30;76.60;;;;;;6305222;27;89116;-71
2022/01/03 03:35:24;;;;;;;5.78;5.25;;;21.30;76.70;;;;;;6304004;27;89015;-70
2022/01/03 03:38:29;;;;;;;5.60;5.10;;;21.30;76.80;;;;;;6294992;27;88428;-71
2022/01/03 03:41:31;;;;;;;5.40;4.90;;;21.20;76.70;;;;;;6296045;27;87947;-71
2022/01/03 03:44:33;;;;;;;5.50;5.00;;;21.20;76.80;;;;;;6308645;27;87847;-71
2022/01/03 03:47:35;;;;;;;5.63;5.00;;;21.20;76.80;;;;;;6294367;27;89950;-71
2022/01/03 03:50:37;;;;;;;5.32;4.82;;;21.20;76.80;;;;;;6297707;27;89122;-72
2022/01/03 03:53:41;;;;;;;5.28;4.78;;;21.20;76.80;;;;;;6297395;27;89092;-72
2022/01/03 03:56:43;;;;;;;5.40;4.90;;;21.20;76.80;;;;;;6303102;27;89099;-71
2022/01/03 03:59:45;;;;;;;5.20;4.70;;;21.20;76.80;;;;;;6297568;27;89020;-72
2022/01/03 04:02:47;;;;;;;5.50;5.00;;;21.20;76.80;;;;;;6295924;27;89132;-70
2022/01/03 04:05:49;;;;;;;5.80;5.20;;;21.20;76.80;;;;;;6295437;27;88006;-71
2022/01/03 04:08:52;;;;;;;5.20;4.70;;;21.20;76.80;;;;;;6308122;27;87276;-71
2022/01/03 04:11:55;;;;;;;5.53;5.03;;;21.20;76.80;;;;;;6283145;27;89121;-72
2022/01/03 04:14:57;;;;;;;5.25;4.75;;;21.20;76.60;;;;;;6295913;27;89061;-71
2022/01/03 04:17:59;;;;;;;5.30;4.80;;;21.30;76.70;;;;;;6284765;27;89997;-71
2022/01/03 04:21:01;;;;;;;5.32;4.82;;;21.20;76.60;;;;;;6303915;27;88902;-70
2022/01/03 04:24:05;;;;;;;5.88;5.28;;;21.30;76.60;;;;;;6299024;27;88967;-71
2022/01/03 04:27:07;;;;;;;5.93;5.00;;;21.20;76.50;;;;;;6304092;27;88939;-71
2022/01/03 04:30:10;;;;;;;5.57;5.05;;;21.20;76.50;;;;;;6302975;27;89167;-72
2022/01/03 04:33:13;;;;;;;6.38;5.78;;;21.20;76.60;;;;;;6284229;27;89051;-70
2022/01/03 04:36:15;;;;;;;5.40;4.90;;;21.20;76.60;;;;;;6297731;27;88008;-72
2022/01/03 04:39:18;;;;;;;5.32;4.82;;;21.30;76.70;;;;;;6294009;27;88350;-71
2022/01/03 04:42:20;;;;;;;5.63;5.03;;;21.20;76.60;;;;;;6283922;27;88052;-71
2022/01/03 04:45:22;;;;;;;5.70;5.10;;;21.20;76.70;;;;;;6295411;27;89161;-72
2022/01/03 04:48:25;;;;;;;5.53;5.03;;;21.20;76.70;;;;;;6294065;27;89990;-71
2022/01/03 04:51:27;;;;;;;6.38;5.57;;;21.20;76.60;;;;;;6307752;27;89053;-72
2022/01/03 04:54:30;;;;;;;5.72;5.13;;;21.20;76.60;;;;;;6307282;27;87889;-72
2022/01/03 04:57:33;;;;;;;5.40;4.90;;;21.20;76.60;;;;;;6307179;27;89019;-72
2022/01/03 05:00:35;;;;;;;5.32;4.82;;;21.10;76.50;;;;;;6283671;27;89061;-73
2022/01/03 05:03:37;;;;;;;5.35;4.85;;;21.20;76.60;;;;;;6296023;27;89052;-72
2022/01/03 05:06:39;;;;;;;5.22;4.72;;;21.20;76.70;;;;;;6296142;27;89227;-72
2022/01/03 05:09:42;;;;;;;5.30;4.80;;;21.20;76.60;;;;;;6296054;27;87285;-72
2022/01/03 05:12:45;;;;;;;4.80;4.32;;;21.30;76.60;;;;;;6284894;27;89014;-72
2022/01/03 05:15:47;;;;;;;4.65;4.25;;;21.20;76.50;;;;;;6292274;27;89203;-72
2022/01/03 05:18:49;;;;;;;5.10;4.60;;;21.30;76.60;;;;;;6292945;27;90057;-72
2022/01/03 05:21:51;;;;;;;4.97;4.50;;;21.20;76.40;;;;;;6288317;27;89196;-72
2022/01/03 05:24:54;;;;;;;4.90;4.40;;;21.20;76.40;;;;;;6286436;27;88064;-72
2022/01/03 05:27:56;;;;;;;4.72;4.28;;;21.20;76.40;;;;;;6304129;27;89473;-72
2022/01/03 05:30:58;;;;;;;4.85;4.38;;;21.20;76.50;;;;;;6308996;27;89320;-72
2022/01/03 05:34:01;;;;;;;4.90;4.40;;;21.20;76.50;;;;;;6295346;27;89088;-71
2022/01/03 05:37:04;;;;;;;5.00;4.38;;;21.20;76.50;;;;;;6285875;27;89206;-71
2022/01/03 05:40:08;;;;;;;4.95;4.43;;;21.20;76.50;;;;;;6282712;27;88318;-71
2022/01/03 05:43:11;;;;;;;4.80;4.20;;;21.20;76.50;;;;;;6304260;27;89008;-71
2022/01/03 05:46:13;;;;;;;4.60;4.20;;;21.20;76.50;;;;;;6296612;27;89040;-72
2022/01/03 05:49:16;;;;;;;4.53;4.13;;;21.20;76.50;;;;;;6306522;27;90351;-72
2022/01/03 05:52:18;;;;;;;4.47;4.07;;;21.20;76.50;;;;;;6294184;27;89135;-71
2022/01/03 05:55:21;;;;;;;4.22;3.83;;;21.20;76.50;;;;;;6291172;27;87964;-71
2022/01/03 05:58:23;;;;;;;4.18;3.78;;;21.20;76.40;;;;;;6299893;27;89075;-70
2022/01/03 06:01:46;;;;;;;4.18;3.72;;;21.20;76.50;;;;;;6286325;27;89121;-71
2022/01/03 06:04:56;;;;;;;4.40;4.00;;;21.20;76.50;;;;;;6285335;27;89187;-72
2022/01/03 06:07:59;;;;;;;4.15;3.75;;;21.20;76.50;;;;;;6280201;27;88009;-72
2022/01/03 06:11:03;;;;;;;4.70;3.85;;;21.20;76.40;;;;;;6300670;27;88436;-71
2022/01/03 06:14:05;;;;;;;4.25;3.85;;;21.20;76.40;;;;;;6306869;27;89402;-71
2022/01/03 06:17:07;;;;;;;3.92;3.53;;;21.20;76.30;;;;;;6305516;27;89013;-72
2022/01/03 06:20:11;;;;;;;4.00;3.60;;;21.30;76.30;;;;;;6290680;27;89031;-72
2022/01/03 06:23:14;;;;;;;3.95;3.55;;;21.30;76.30;;;;;;6292638;27;88448;-72
2022/01/03 06:26:18;;;;;;;3.67;3.38;;;21.30;76.30;;;;;;6294622;27;89309;-71
2022/01/03 06:29:20;;;;;;;4.00;3.60;;;21.30;76.20;;;;;;6305287;27;89116;-72
2022/01/03 06:32:21;;;;;;;3.90;3.50;;;21.30;76.10;;;;;;6293866;27;89087;-72
2022/01/03 06:35:23;;;;;;;3.97;3.40;;;21.30;76.20;;;;;;6296339;27;88966;-72
2022/01/03 06:38:25;;;;;;;4.03;3.55;;;21.30;76.10;;;;;;6303150;27;89020;-72
2022/01/03 06:41:29;;;;;;;3.30;3.00;;;21.30;76.10;;;;;;6288364;27;88262;-71
2022/01/03 06:44:31;;;;;;;3.47;3.17;;;21.30;76.10;;;;;;6286347;27;87981;-72
2022/01/03 06:47:33;;;;;;;3.50;3.20;;;21.30;76.20;;;;;;6296714;27;89049;-72
2022/01/03 06:50:36;;;;;;;3.42;3.13;;;21.30;76.10;;;;;;6309028;27;90191;-72
2022/01/03 06:53:38;;;;;;;3.67;3.13;;;21.30;76.10;;;;;;6297489;27;89254;-72
2022/01/03 06:56:42;;;;;;;3.58;3.28;;;21.30;76.10;;;;;;6295796;27;89111;-71
2022/01/03 06:59:44;;;;;;;3.42;3.00;;;21.30;76.10;;;;;;6305173;27;89073;-72
2022/01/03 07:02:46;;;;;;;3.47;3.17;;;21.30;76.10;;;;;;6299474;27;88992;-72
2022/01/03 07:05:48;;;;;;;3.70;3.35;;;21.30;76.10;;;;;;6288541;27;89094;-72
2022/01/03 07:08:50;;;;;;;3.30;3.00;;;21.30;76.10;;;;;;6297202;27;89051;-72
2022/01/03 07:11:54;;;;;;;3.38;3.00;;;21.30;76.10;;;;;;6297193;27;88421;-72
2022/01/03 07:21:36;;;;;;;3.42;3.13;;;21.30;76.00;;;;;;6305963;27;89635;-71
2022/01/03 07:24:40;;;;;;;3.50;3.10;;;21.40;76.10;;;;;;6311228;27;88820;-72
2022/01/03 07:27:43;;;;;;;3.45;3.15;;;21.30;76.00;;;;;;6298498;27;89013;-71
2022/01/03 07:30:45;;;;;;;2.88;2.60;;;21.30;76.00;;;;;;6284817;27;89212;-72
2022/01/03 07:33:48;;;;;;;3.10;2.78;;;21.40;76.10;;;;;;6284939;27;89156;-71
2022/01/03 07:36:50;;;;;;;3.58;2.83;;;21.30;76.00;;;;;;6298053;27;89066;-71
2022/01/03 07:39:53;;;;;;;3.20;2.90;;;21.30;76.00;;;;;;6302659;27;89030;-72
2022/01/03 07:42:56;;;;;;;2.80;2.60;;;21.40;76.10;;;;;;6283816;27;88394;-72
2022/01/03 07:45:59;;;;;;;3.00;2.70;;;21.30;76.00;;;;;;6298095;27;87950;-70
2022/01/03 07:49:01;;;;;;;3.33;2.80;;;21.40;76.10;;;;;;6283001;27;89198;-71
2022/01/03 07:52:03;;;;;;;2.90;2.60;;;21.40;76.10;;;;;;6284479;27;89717;-71
2022/01/03 07:55:07;;;;;;;3.47;2.78;;;21.40;76.10;;;;;;6308707;27;89160;-71
2022/01/03 07:58:14;;;;;;;3.47;3.00;;;21.40;76.10;;;;;;6296520;27;89050;-72
2022/01/03 08:01:16;;;;;;;2.60;2.40;;;21.40;76.10;;;;;;6283954;27;89415;-72
2022/01/03 08:04:18;;;;;;;2.72;2.53;;;21.30;76.00;;;;;;6285878;27;89046;-71
2022/01/03 08:07:20;;;;;;;2.63;2.42;;;21.40;76.10;;;;;;6293787;27;89087;-72
2022/01/03 08:10:23;;;;;;;2.83;2.53;;;21.40;76.10;;;;;;6282578;27;89004;-72
2022/01/03 08:13:26;;;;;;;2.92;2.63;;;21.40;76.10;;;;;;6297825;27;88639;-70
2022/01/03 08:16:28;;;;;;;3.00;2.70;;;21.40;76.00;;;;;;6307654;27;87844;-71
2022/01/03 08:19:30;;;;;;;2.90;2.60;;;21.40;76.00;;;;;;6290213;27;87938;-73
2022/01/03 08:22:32;;;;;;;2.85;2.55;;;21.40;76.00;;;;;;6287445;27;89981;-71
2022/01/03 08:25:37;;;;;;;2.90;2.60;;;21.40;76.00;;;;;;6291208;27;89030;-71
2022/01/03 08:28:40;;;;;;;2.50;2.30;;;21.40;75.90;;;;;;6301965;27;89033;-71
2022/01/03 08:31:42;;;;;;;2.75;2.55;;;21.40;75.90;;;;;;6297429;27;89180;-72
2022/01/03 08:34:44;;;;;;;3.00;2.70;;;21.40;75.90;;;;;;6281945;27;88947;-71
2022/01/03 08:37:47;;;;;;;2.88;2.47;;;21.40;75.90;;;;;;6282220;27;89163;-72
2022/01/03 08:40:49;;;;;;;2.50;2.30;;;21.40;76.00;;;;;;6283237;27;88708;-72
2022/01/03 08:43:53;;;;;;;2.60;2.40;;;21.40;76.00;;;;;;6283063;27;88547;-72
2022/01/03 08:46:55;;;;;;;2.60;2.40;;;21.40;76.00;;;;;;6296474;27;89124;-71
2022/01/03 08:49:57;;;;;;;3.00;2.65;;;21.40;76.00;;;;;;6297995;27;89121;-71
2022/01/03 08:53:00;;;;;;;2.70;2.50;;;21.40;75.90;;;;;;6289003;27;90311;-71
2022/01/03 08:56:03;;;;;;;2.60;2.40;;;21.40;75.90;;;;;;6292890;27;89609;-71
2022/01/03 08:59:07;;;;;;;2.70;2.50;;;21.40;76.00;;;;;;6296714;27;89206;-71
2022/01/03 09:02:09;;;;;;;2.92;2.63;;;21.40;75.90;;;;;;6283372;27;90405;-71
2022/01/03 09:05:11;;;;;;;2.50;2.30;;;21.40;75.90;;;;;;6283792;27;89105;-72
2022/01/03 09:08:15;;;;;;;2.83;2.50;;;21.50;76.00;;;;;;6291210;27;89075;-72
2022/01/03 09:11:18;;;;;;;2.60;2.40;;;21.40;75.90;;;;;;6299356;27;89649;-71
2022/01/03 09:14:21;;;;;;;2.40;2.20;;;21.50;75.90;;;;;;6298293;27;88379;-70
2022/01/03 09:17:23;;;;;;;2.70;2.50;;;21.50;75.90;;;;;;6294441;27;89278;-71
2022/01/03 09:20:25;;;;;;;2.40;2.20;;;21.50;75.90;;;;;;6292258;27;88303;-72
2022/01/03 09:23:31;;;;;;;2.55;2.35;;;21.50;75.90;;;;;;6293733;27;90104;-71
2022/01/03 09:29:54;;;;;;;2.65;2.45;;;21.40;75.90;;;;;;6283393;27;87299;-72
2022/01/03 09:32:56;;;;;;;2.65;2.45;;;21.50;76.00;;;;;;6309166;27;89052;-71
2022/01/03 09:35:58;;;;;;;2.45;2.22;;;21.40;75.90;;;;;;6293916;27;89077;-71
2022/01/03 09:39:03;;;;;;;2.60;2.40;;;21.50;75.90;;;;;;6280389;27;89045;-72
2022/01/03 09:42:09;;;;;;;3.00;2.25;;;21.50;75.90;;;;;;6281200;27;89089;-72
2022/01/03 09:45:13;;;;;;;2.40;2.20;;;21.50;76.00;;;;;;6295477;27;88382;-72
2022/01/03 09:48:16;;;;;;;2.75;2.42;;;21.50;75.90;;;;;;6292407;27;89119;-71
2022/01/03 09:51:18;;;;;;;3.00;2.40;;;21.50;75.90;;;;;;6305340;27;89009;-72
2022/01/03 09:54:22;;;;;;;2.75;2.20;;;21.40;75.90;;;;;;6306879;27;90106;-71
2022/01/03 09:57:26;;;;;;;2.50;2.30;;;21.50;75.90;;;;;;6301425;27;89017;-72
2022/01/03 10:00:29;;;;;;;2.67;2.47;;;21.50;76.80;;;;;;6292655;27;89457;-72
2022/01/03 10:03:31;;;;;;;2.60;2.40;;;21.50;75.90;;;;;;6307812;27;87931;-72
2022/01/03 10:06:33;;;;;;;2.97;2.50;;;21.50;75.90;;;;;;6294112;27;89386;-71
2022/01/03 10:09:36;;;;;;;2.67;2.47;;;21.50;75.90;;;;;;6299903;27;87880;-71
2022/01/03 10:12:39;;;;;;;2.60;2.40;;;21.50;75.90;;;;;;6281421;27;89442;-72
2022/01/03 10:15:42;;;;;;;2.80;2.50;;;21.50;75.90;;;;;;6287293;27;88355;-71
2022/01/03 10:18:47;;;;;;;2.42;2.15;;;21.50;75.90;;;;;;6303043;27;89166;-72
2022/01/03 10:21:51;;;;;;;2.75;2.13;;;21.50;75.90;;;;;;6294645;27;89331;-71
2022/01/03 10:24:54;;;;;;;2.88;2.30;;;21.50;75.80;;;;;;6298109;27;90159;-71
2022/01/03 10:27:59;;;;;;;2.40;2.20;;;21.50;75.90;;;;;;6297564;27;88000;-71
2022/01/03 10:31:13;;;;;;;2.38;2.17;;;21.50;75.90;;;;;;6286376;27;88027;-71
2022/01/03 10:34:18;;;;;;;2.20;2.00;;;21.50;75.90;;;;;;6286475;27;87976;-71
2022/01/03 10:37:20;;;;;;;2.20;2.00;;;21.50;75.80;;;;;;6301841;27;89528;-72
2022/01/03 10:40:29;;;;;;;3.03;2.28;;;21.50;75.80;;;;;;6302487;27;88984;-72
2022/01/03 10:43:35;;;;;;;2.40;2.20;;;21.50;75.90;;;;;;6283753;27;89053;-72
2022/01/03 10:46:50;;;;;;;2.47;2.28;;;21.50;75.90;;;;;;6294101;27;88247;-71
2022/01/03 10:49:52;;;;;;;2.20;2.00;;;21.50;75.80;;;;;;6310665;27;89022;-71
2022/01/03 10:52:54;;;;;;;2.58;2.22;;;21.50;75.90;;;;;;6311076;27;89072;-71
2022/01/03 10:55:57;;;;;;;2.63;2.25;;;21.50;75.80;;;;;;6304294;27;90075;-72
2022/01/03 10:59:00;;;;;;;2.65;2.10;;;21.50;75.80;;;;;;6297726;27;89474;-72
2022/01/03 11:02:06;;;;;;;2.20;2.00;;;21.50;75.80;;;;;;6309925;27;89166;-71
2022/01/03 11:05:12;;;;;;;2.25;2.05;;;21.50;75.70;;;;;;6289339;27;88042;-72
2022/01/03 11:11:36;;;;;;;2.58;2.10;;;21.50;75.70;;;;;;6285600;27;87321;-71
2022/01/03 11:14:41;;;;;;;2.20;2.00;;;21.50;75.70;;;;;;6299076;27;87957;-72
2022/01/03 11:17:44;;;;;;;2.20;2.00;;;21.50;75.70;;;;;;6300457;27;88202;-71
2022/01/03 11:20:49;;;;;;;2.63;2.10;;;21.50;75.70;;;;;;6298680;27;89112;-72
2022/01/03 11:24:04;;;;;;;2.08;1.88;;;21.50;75.70;;;;;;6297633;27;88288;-73
2022/01/03 11:27:06;;;;;;;2.20;2.00;;;21.50;75.70;;;;;;6297417;27;90122;-72
2022/01/03 11:30:10;;;;;;;2.25;1.98;;;21.50;75.70;;;;;;6288121;27;89074;-72
2022/01/03 11:33:15;;;;;;;2.42;2.00;;;21.50;75.70;;;;;;6307964;27;89007;-72
2022/01/03 11:36:18;;;;;;;2.35;2.13;;;21.50;75.70;;;;;;6290053;27;89322;-71
2022/01/03 11:39:22;;;;;;;2.20;2.00;;;21.50;75.70;;;;;;6298656;27;89384;-71
2022/01/03 11:42:24;;;;;;;3.22;1.90;;;21.50;75.70;;;;;;6309481;27;89177;-72
2022/01/03 11:45:27;;;;;;;2.10;1.90;;;21.50;75.80;;;;;;6283038;27;88060;-72
2022/01/03 11:48:30;;;;;;;2.40;2.20;;;21.50;75.80;;;;;;6309814;27;87232;-72
2022/01/03 11:51:34;;;;;;;2.35;1.70;;;21.50;75.90;;;;;;6299812;27;88013;-72
2022/01/03 11:54:37;;;;;;;1.90;1.80;;;21.50;75.70;;;;;;6284480;27;89071;-71
2022/01/03 11:58:08;;;;;;;2.10;1.90;;;21.50;75.70;;;;;;6296025;27;89821;-71
2022/01/03 12:04:34;;;;;;;1.88;1.77;;;21.60;75.70;;;;;;6285241;27;87336;-70
2022/01/03 12:07:54;;;;;;;1.98;1.60;;;21.60;75.70;;;;;;6299443;27;89058;-71
2022/01/03 12:11:00;;;;;;;2.38;1.95;;;21.50;75.70;;;;;;6306155;27;89196;-71
2022/01/03 12:14:10;;;;;;;2.08;1.70;;;21.50;75.70;;;;;;6304641;27;89310;-72
2022/01/03 12:17:14;;;;;;;1.83;1.58;;;21.50;75.70;;;;;;6282365;27;89114;-73
2022/01/03 12:20:18;;;;;;;1.98;1.67;;;21.50;75.70;;;;;;6292319;27;88276;-70
2022/01/03 12:23:40;;;;;;;2.20;2.00;;;21.50;75.70;;;;;;6282241;27;89067;-72
2022/01/03 12:27:03;;;;;;;2.67;2.10;;;21.50;75.70;;;;;;6287082;27;89303;-72
2022/01/03 12:30:25;;;;;;;2.22;1.90;;;21.50;75.70;;;;;;6284466;27;88872;-71
2022/01/03 12:33:27;;;;;;;2.28;1.90;;;21.60;75.70;;;;;;6302761;27;89492;-72
2022/01/03 12:36:30;;;;;;;1.92;1.70;;;21.50;75.70;;;;;;6295800;27;89188;-72
2022/01/03 12:39:33;;;;;;;2.17;1.83;;;21.50;75.70;;;;;;6300869;27;88763;-70
2022/01/03 12:42:54;;;;;;;2.33;2.13;;;21.50;75.70;;;;;;6294716;27;89123;-72
2022/01/03 12:49:26;;;;;;;2.33;1.60;;;21.50;75.70;;;;;;6300345;27;87558;-71
2022/01/03 12:52:41;;;;;;;2.00;1.80;;;21.50;75.70;;;;;;6295181;27;88288;-72
2022/01/03 12:59:15;;;;;;;1.92;1.80;;;21.50;75.60;;;;;;6281888;27;88297;-72
2022/01/03 13:02:30;;;;;;;2.20;1.83;;;21.50;75.60;;;;;;6282706;27;90076;-70
2022/01/03 13:05:32;;;;;;;1.73;1.63;;;21.50;75.70;;;;;;6281416;27;89077;-71
2022/01/03 13:08:38;;;;;;;2.15;1.80;;;21.50;75.60;;;;;;6294452;27;89231;-71
2022/01/03 13:11:44;;;;;;;1.80;1.55;;;21.50;75.60;;;;;;6282092;27;89058;-72
2022/01/03 13:14:46;;;;;;;1.92;1.70;;;21.60;75.70;;;;;;6281423;27;89000;-72
2022/01/03 13:17:48;;;;;;;1.70;1.60;;;21.60;75.60;;;;;;6296419;27;88141;-72
2022/01/03 13:20:57;;;;;;;2.30;1.90;;;21.60;75.70;;;;;;6290640;27;89019;-72
2022/01/03 13:24:01;;;;;;;1.75;1.60;;;21.50;75.50;;;;;;6303864;27;88283;-72
2022/01/03 13:27:11;;;;;;;1.60;1.50;;;21.50;75.50;;;;;;6294207;27;89127;-71
2022/01/03 13:30:13;;;;;;;1.70;1.55;;;21.50;75.50;;;;;;6286852;27;89137;-72
2022/01/03 13:33:24;;;;;;;1.63;1.52;;;21.50;75.50;;;;;;6292094;27;90359;-72
2022/01/03 13:36:36;;;;;;;2.13;1.70;;;21.60;75.60;;;;;;6296711;27;89159;-72
2022/01/03 13:39:41;;;;;;;2.35;1.90;;;21.60;75.50;;;;;;6297365;27;89048;-71
2022/01/03 13:42:48;;;;;;;2.33;1.70;;;21.50;75.60;;;;;;6283600;27;89010;-71
2022/01/03 13:49:13;;;;;;;3.67;1.83;;;21.50;75.70;;;;;;6287563;27;87758;-71
2022/01/03 13:52:15;;;;;;;4.07;2.03;;;21.60;76.30;;;;;;6284905;27;88991;-69
2022/01/03 13:55:39;;;;;;;3.45;1.95;;;21.60;78.30;;;;;;6301095;27;88296;-70
2022/01/03 13:58:43;;;;;;;4.80;1.90;;;21.60;77.00;;;;;;6306028;27;89115;-70
2022/01/03 14:01:46;;;;;;;4.43;2.10;;;21.60;76.40;;;;;;6293889;27;89464;-70
2022/01/03 14:04:49;;;;;;;3.97;2.05;;;21.60;76.20;;;;;;6291378;27;89910;-70
2022/01/03 14:07:55;;;;;;;3.08;2.10;;;21.60;76.20;;;;;;6292474;27;89047;-70
2022/01/03 14:10:59;;;;;;;5.53;2.50;;;21.60;76.30;;;;;;6302206;27;88991;-71
2022/01/03 14:14:09;;;;;;;3.97;2.03;;;21.60;76.20;;;;;;6284911;27;89220;-71
2022/01/03 14:17:11;;;;;;;2.80;2.17;;;21.50;76.20;;;;;;6289587;27;87977;-71
2022/01/03 14:20:13;;;;;;;3.47;2.53;;;21.60;76.20;;;;;;6294692;27;89051;-71
2022/01/03 14:23:16;;;;;;;4.93;2.55;;;21.50;76.20;;;;;;6293969;27;89118;-70
2022/01/03 14:26:22;;;;;;;3.28;2.35;;;21.50;76.30;;;;;;6285326;27;88346;-71
2022/01/03 14:29:33;;;;;;;2.42;2.22;;;21.50;76.30;;;;;;6279885;27;89026;-71
2022/01/03 14:32:38;;;;;;;3.80;2.38;;;21.50;76.40;;;;;;6280850;27;87826;-71
2022/01/03 14:35:44;;;;;;;4.88;2.40;;;21.50;76.40;;;;;;6287525;27;88893;-70
2022/01/03 14:38:47;;;;;;;2.85;2.28;;;21.50;76.40;;;;;;6281466;27;89375;-71
2022/01/03 14:41:59;;;;;;;2.90;2.30;;;21.50;76.40;;;;;;6295644;27;89200;-70
2022/01/03 14:45:10;;;;;;;3.10;2.40;;;21.50;76.40;;;;;;6279476;27;89690;-71
2022/01/03 14:48:16;;;;;;;3.92;2.55;;;21.50;76.40;;;;;;6293412;27;88227;-71
2022/01/03 14:51:18;;;;;;;3.22;2.53;;;21.50;76.40;;;;;;6294362;27;89090;-70
2022/01/03 14:54:23;;;;;;;3.75;2.92;;;21.40;76.40;;;;;;6280045;27;89151;-71
2022/01/03 14:57:29;;;;;;;3.25;2.60;;;21.40;76.40;;;;;;6293555;27;88394;-70
2022/01/03 15:00:32;;;;;;;2.67;2.45;;;21.40;76.40;;;;;;6280821;27;89189;-71
2022/01/03 15:03:34;;;;;;;3.40;2.70;;;21.40;76.40;;;;;;6293291;27;89050;-70
2022/01/03 15:06:36;;;;;;;3.40;2.78;;;21.40;76.50;;;;;;6294216;27;89902;-70
2022/01/03 15:09:38;;;;;;;3.15;2.70;;;21.40;76.50;;;;;;6285644;27;88981;-70
2022/01/03 15:12:42;;;;;;;5.10;3.10;;;21.30;76.50;;;;;;6286431;27;89329;-70
2022/01/03 15:15:44;;;;;;;3.55;2.72;;;21.40;76.60;;;;;;6301096;27;89052;-70
2022/01/03 15:18:46;;;;;;;3.72;3.10;;;21.30;76.50;;;;;;6295857;27;87935;-70
2022/01/03 15:21:49;;;;;;;3.47;3.10;;;21.40;76.60;;;;;;6309023;27;89068;-71
2022/01/03 15:24:51;;;;;;;4.57;3.15;;;21.30;76.60;;;;;;6304510;27;88121;-71
2022/01/03 15:27:57;;;;;;;3.45;3.15;;;21.40;76.70;;;;;;6290726;27;88244;-70
2022/01/03 15:31:00;;;;;;;3.78;3.38;;;21.30;76.60;;;;;;6292951;27;89044;-71
2022/01/03 15:34:02;;;;;;;3.08;2.78;;;21.30;76.70;;;;;;6288716;27;88833;-71
2022/01/03 15:37:04;;;;;;;4.22;3.25;;;21.30;76.70;;;;;;6282324;27;88909;-70
2022/01/03 15:40:07;;;;;;;5.68;3.20;;;21.40;77.00;;;;;;6295609;27;87940;-70
2022/01/03 15:43:11;;;;;;;5.63;3.53;;;21.30;77.80;;;;;;6292180;27;89083;-70
2022/01/03 15:46:14;;;;;;;4.63;3.28;;;21.40;77.60;;;;;;6287510;27;89234;-69
2022/01/03 15:49:16;;;;;;;3.97;3.40;;;21.40;77.70;;;;;;6290763;27;89447;-69
2022/01/03 15:52:18;;;;;;;7.38;3.78;;;21.40;77.80;;;;;;6290818;27;89206;-69
2022/01/03 15:55:20;;;;;;;5.07;3.08;;;21.40;78.00;;;;;;6278613;27;89224;-71
2022/01/03 15:58:27;;;;;;;5.32;3.65;;;21.40;78.10;;;;;;6290784;27;87330;-71
2022/01/03 16:01:31;;;;;;;6.40;3.33;;;21.50;78.30;;;;;;6283519;27;89407;-71
2022/01/03 16:04:34;;;;;;;4.85;3.47;;;21.50;78.20;;;;;;6280870;27;89033;-70
2022/01/03 16:07:36;;;;;;;5.32;3.50;;;21.50;78.20;;;;;;6300111;27;90013;-72
2022/01/03 16:10:38;;;;;;;5.25;3.20;;;21.60;78.30;;;;;;6276958;27;87917;-71
2022/01/03 16:13:42;;;;;;;5.07;3.60;;;21.60;78.30;;;;;;6279192;27;88051;-71
2022/01/03 16:16:44;;;;;;;6.18;3.28;;;21.60;78.30;;;;;;6292030;27;89230;-69
2022/01/03 16:19:46;;;;;;;5.28;3.50;;;21.60;78.40;;;;;;6300040;27;87991;-69
2022/01/03 16:22:48;;;;;;;4.65;3.45;;;21.60;78.70;;;;;;6293065;27;89176;-68
2022/01/03 16:25:50;;;;;;;6.25;3.50;;;21.70;78.80;;;;;;6291409;27;89277;-70
2022/01/03 16:28:56;;;;;;;7.97;3.70;;;21.70;78.80;;;;;;6290604;27;88312;-70
2022/01/03 16:31:59;;;;;;;6.80;3.90;;;21.70;78.80;;;;;;6284123;27;89172;-70